Time;durP1;ratioP1;P1;durP2;ratioP2;P2;SDS_P1;SDS_P2;PMS_P1;PMS_P2;Temp;Humidity;BMP_temperature;BMP_pressure;BME280_temperature;BME280_humidity;BME280_pressure;Samples;Min_cycle;Max_cycle;Signal;HPM_P1;HPM_P2
2022/12/12 05:01:27;;;;;;;1999.90;999.90;;;-1.00;99.90;;;;;;5679163;22;20503;-77
2022/12/12 05:03:57;;;;;;;1999.90;999.90;;;-1.00;99.90;;;;;;4994440;28;20479;-77
2022/12/12 05:06:48;;;;;;;1999.90;999.90;;;-1.00;99.90;;;;;;4995876;28;20554;-78
2022/12/12 05:09:16;;;;;;;1999.90;999.90;;;-0.90;99.90;;;;;;4995815;28;20389;-78
2022/12/12 05:11:41;;;;;;;1999.90;999.90;;;-0.90;99.90;;;;;;4995587;28;20122;-77
2022/12/12 05:14:18;;;;;;;1999.90;999.90;;;-0.90;99.90;;;;;;4996097;28;20035;-78
2022/12/12 05:16:51;;;;;;;1999.90;999.90;;;-0.80;99.90;;;;;;4995424;28;20039;-79
2022/12/12 05:19:17;;;;;;;1999.90;999.90;;;-0.90;99.90;;;;;;5055419;22;20047;-80
2022/12/12 05:21:42;;;;;;;1999.90;999.90;;;-0.90;99.90;;;;;;5000131;28;20045;-79
2022/12/12 05:24:08;;;;;;;1999.90;999.90;;;-0.90;99.90;;;;;;4996645;28;20037;-79
2022/12/12 05:26:34;;;;;;;1999.90;999.90;;;-0.90;99.90;;;;;;5018903;28;20408;-80
2022/12/12 05:29:01;;;;;;;1999.90;999.90;;;-1.00;99.90;;;;;;5010658;28;20034;-79
2022/12/12 05:31:26;;;;;;;1999.90;999.90;;;-1.00;99.90;;;;;;4996385;28;20037;-80
2022/12/12 05:33:52;;;;;;;1999.90;999.90;;;-1.00;99.90;;;;;;5000161;28;20077;-80
2022/12/12 05:36:18;;;;;;;1999.90;999.90;;;-1.00;99.90;;;;;;5001489;28;20035;-80
2022/12/12 05:38:43;;;;;;;1999.90;999.90;;;-1.00;99.90;;;;;;4997326;28;20092;-79
2022/12/12 05:41:10;;;;;;;1999.90;999.90;;;-1.00;99.90;;;;;;5002581;28;20151;-80
2022/12/12 05:43:36;;;;;;;1999.90;999.90;;;-1.00;99.90;;;;;;5000921;28;20125;-80
2022/12/12 05:46:01;;;;;;;1999.90;999.90;;;-1.00;99.90;;;;;;4999585;28;20090;-80
2022/12/12 05:48:27;;;;;;;1999.90;999.90;;;-1.00;99.90;;;;;;5002348;28;20062;-80
2022/12/12 05:50:53;;;;;;;1999.90;999.90;;;-1.00;99.90;;;;;;4998812;28;20489;-79
2022/12/12 05:53:19;;;;;;;1999.90;999.90;;;-1.00;99.90;;;;;;4995004;28;20042;-80
2022/12/12 05:55:44;;;;;;;1999.90;999.90;;;-1.00;99.90;;;;;;4994560;28;20097;-79
2022/12/12 05:58:10;;;;;;;1999.90;999.90;;;-1.00;99.90;;;;;;4995587;28;20031;-79
2022/12/12 06:00:36;;;;;;;1999.90;999.90;;;-1.10;99.90;;;;;;4995579;28;20113;-80
2022/12/12 06:03:01;;;;;;;1999.90;999.90;;;-1.10;99.90;;;;;;4994353;28;20058;-79
2022/12/12 06:05:27;;;;;;;1999.90;999.90;;;-1.10;99.90;;;;;;4995709;28;20046;-80
2022/12/12 06:07:52;;;;;;;1999.90;999.90;;;-1.20;99.90;;;;;;4993842;28;20030;-79
2022/12/12 06:10:18;;;;;;;1999.90;999.90;;;-1.20;99.90;;;;;;4994210;28;20153;-79
2022/12/12 06:12:43;;;;;;;1999.90;999.90;;;-1.20;99.90;;;;;;5006457;28;20049;-79
2022/12/12 06:15:09;;;;;;;1999.90;999.90;;;-1.20;99.90;;;;;;5013665;28;20048;-79
2022/12/12 06:17:35;;;;;;;1999.90;999.90;;;-1.20;99.90;;;;;;5012455;28;20041;-79
2022/12/12 06:20:01;;;;;;;1999.90;999.90;;;-1.20;99.90;;;;;;5014392;28;20045;-79
2022/12/12 06:22:27;;;;;;;1999.90;999.90;;;-1.10;99.90;;;;;;5013490;28;20034;-79
2022/12/12 06:24:52;;;;;;;1999.90;999.90;;;-1.10;99.90;;;;;;5012932;28;20038;-79
2022/12/12 06:27:18;;;;;;;1999.90;999.90;;;-1.10;99.90;;;;;;5013829;28;20396;-79
2022/12/12 06:29:43;;;;;;;1999.90;999.90;;;-1.20;99.90;;;;;;5013427;28;20472;-79
2022/12/12 06:32:09;;;;;;;1999.90;999.90;;;-1.10;99.90;;;;;;5021821;28;20037;-79
2022/12/12 06:34:39;;;;;;;1999.90;999.90;;;-1.20;99.90;;;;;;5016847;28;20129;-79
2022/12/12 06:37:07;;;;;;;1999.90;999.90;;;-1.10;99.90;;;;;;5020258;28;20070;-79
2022/12/12 06:39:33;;;;;;;1999.90;999.90;;;-1.00;99.90;;;;;;5019912;28;20035;-80
2022/12/12 06:41:59;;;;;;;1999.90;999.90;;;-1.00;99.90;;;;;;5017745;28;20039;-79
2022/12/12 06:44:25;;;;;;;1999.90;999.90;;;-1.00;99.90;;;;;;5018034;28;20035;-79
2022/12/12 06:46:50;;;;;;;1999.90;999.90;;;-1.00;99.90;;;;;;4987427;28;20066;-79
2022/12/12 06:49:16;;;;;;;1999.90;999.90;;;-1.00;99.90;;;;;;4978914;28;20040;-80
2022/12/12 06:51:45;;;;;;;1999.90;999.90;;;-1.00;99.90;;;;;;4983123;28;20042;-79
2022/12/12 06:54:16;;;;;;;1999.90;999.90;;;-0.90;99.90;;;;;;4981860;28;20055;-79
2022/12/12 06:56:42;;;;;;;1999.90;999.90;;;-0.80;99.90;;;;;;4982706;28;20476;-79
2022/12/12 06:59:10;;;;;;;1999.90;999.90;;;-0.90;99.90;;;;;;4980552;28;20035;-79
2022/12/12 07:01:36;;;;;;;1999.90;999.90;;;-0.90;99.90;;;;;;4982051;28;20028;-80
2022/12/12 07:04:02;;;;;;;1999.90;999.90;;;-0.80;99.90;;;;;;4979904;28;20047;-81
2022/12/12 07:06:28;;;;;;;1999.90;999.90;;;-0.70;99.90;;;;;;4981245;28;20454;-81
2022/12/12 07:08:54;;;;;;;1999.90;999.90;;;-0.70;99.90;;;;;;4979785;28;20039;-85
2022/12/12 07:11:22;;;;;;;1999.90;999.90;;;-0.60;99.90;;;;;;4978964;28;20052;-83
2022/12/12 07:13:48;;;;;;;1999.90;999.90;;;-0.60;99.90;;;;;;4979647;28;20070;-81
2022/12/12 07:16:15;;;;;;;1999.90;999.90;;;-0.70;99.90;;;;;;4981104;28;20115;-82
2022/12/12 07:18:40;;;;;;;1999.90;999.90;;;-0.70;99.90;;;;;;4980554;28;20130;-81
2022/12/12 07:21:09;;;;;;;1999.90;999.90;;;-0.70;99.90;;;;;;4980149;28;20942;-81
2022/12/12 07:23:36;;;;;;;1999.90;999.90;;;-0.60;99.90;;;;;;4979661;28;20035;-80
2022/12/12 07:26:13;;;;;;;1999.90;999.90;;;-0.60;99.90;;;;;;4979589;28;20085;-81
2022/12/12 07:28:39;;;;;;;1999.90;999.90;;;-0.50;99.90;;;;;;4980074;28;20497;-81
2022/12/12 07:31:07;;;;;;;1999.90;999.90;;;-0.50;99.90;;;;;;4981844;28;20114;-85
2022/12/12 07:33:33;;;;;;;1999.90;999.90;;;-0.50;99.90;;;;;;4979490;28;20055;-80
2022/12/12 07:35:59;;;;;;;1999.90;999.90;;;-0.40;99.90;;;;;;4981163;28;20039;-80
2022/12/12 07:38:25;;;;;;;1999.90;999.90;;;-0.40;99.90;;;;;;4986273;28;20034;-80
2022/12/12 07:40:50;;;;;;;1999.90;999.90;;;-0.40;99.90;;;;;;4997966;28;20056;-80
2022/12/12 07:43:16;;;;;;;1999.90;999.90;;;-0.30;99.90;;;;;;4979946;28;20071;-81
2022/12/12 07:45:46;;;;;;;1999.90;999.90;;;-0.30;99.90;;;;;;4981769;28;20042;-80
2022/12/12 07:48:13;;;;;;;1999.90;999.90;;;-0.30;99.90;;;;;;4980566;28;20035;-81
2022/12/12 07:50:39;;;;;;;1999.90;999.90;;;-0.30;99.90;;;;;;4981303;28;20046;-80
2022/12/12 07:53:06;;;;;;;1999.90;999.90;;;-0.20;99.90;;;;;;4981050;28;20031;-81
2022/12/12 07:55:32;;;;;;;1999.90;999.90;;;-0.30;99.90;;;;;;4988036;28;20040;-79
2022/12/12 07:57:58;;;;;;;1999.90;999.90;;;-0.20;99.90;;;;;;4978825;28;20031;-79
2022/12/12 08:00:23;;;;;;;1999.90;999.90;;;-0.30;99.90;;;;;;4978941;28;20082;-80
2022/12/12 08:02:49;;;;;;;1999.90;999.90;;;-0.20;99.90;;;;;;4978268;28;20035;-80
2022/12/12 08:05:15;;;;;;;1999.90;999.90;;;-0.20;99.90;;;;;;4978277;28;20433;-80
2022/12/12 08:07:41;;;;;;;1999.90;999.90;;;-0.20;99.90;;;;;;4978702;28;20027;-80
2022/12/12 08:10:07;;;;;;;1999.90;999.90;;;-0.10;99.90;;;;;;4981552;28;20062;-80
2022/12/12 08:12:33;;;;;;;1999.90;999.90;;;-0.10;99.90;;;;;;4979619;28;20035;-84
2022/12/12 08:14:58;;;;;;;1999.90;999.90;;;-0.10;99.90;;;;;;4979943;28;20039;-79
2022/12/12 08:17:24;;;;;;;1999.90;999.90;;;-0.10;99.90;;;;;;4981681;28;20184;-82
2022/12/12 08:19:50;;;;;;;1999.90;999.90;;;0.00;99.90;;;;;;4980989;28;20063;-86
2022/12/12 08:22:16;;;;;;;1999.90;999.90;;;0.00;99.90;;;;;;4993454;28;20070;-79
2022/12/12 08:24:41;;;;;;;1999.90;999.90;;;0.00;99.90;;;;;;4998126;28;20030;-79
2022/12/12 08:27:07;;;;;;;1999.90;999.90;;;-0.10;99.90;;;;;;5000230;28;20384;-79
2022/12/12 08:29:32;;;;;;;1999.90;999.90;;;-0.10;99.90;;;;;;5004704;28;20110;-79
2022/12/12 08:31:58;;;;;;;1999.90;999.90;;;0.00;99.90;;;;;;4998773;28;20055;-79
2022/12/12 08:34:24;;;;;;;1999.90;999.90;;;0.00;99.90;;;;;;4996906;28;20054;-79
2022/12/12 08:36:49;;;;;;;1999.90;999.90;;;0.00;99.90;;;;;;5004386;28;20041;-79
2022/12/12 08:39:15;;;;;;;1999.90;999.90;;;0.00;99.90;;;;;;4996599;28;20102;-79
2022/12/12 08:41:44;;;;;;;1999.90;999.90;;;0.10;99.90;;;;;;4991472;28;20118;-79
2022/12/12 08:44:11;;;;;;;1999.90;999.90;;;0.10;99.90;;;;;;4991489;28;20497;-79
2022/12/12 08:46:37;;;;;;;1999.90;999.90;;;0.20;99.90;;;;;;4980831;28;20027;-79
2022/12/12 08:49:04;;;;;;;1999.90;999.90;;;0.30;99.90;;;;;;4996082;28;20097;-79
2022/12/12 08:51:29;;;;;;;1999.90;999.90;;;0.40;99.90;;;;;;5000359;28;20038;-79
2022/12/12 08:53:55;;;;;;;1999.90;999.90;;;0.50;99.90;;;;;;5006425;28;20043;-79
2022/12/12 08:56:22;;;;;;;1999.90;999.90;;;0.50;99.90;;;;;;4998087;28;20065;-80
2022/12/12 08:58:48;;;;;;;1999.90;999.90;;;0.50;99.90;;;;;;4983191;28;21202;-79
2022/12/12 09:01:18;;;;;;;1999.90;999.90;;;0.60;99.90;;;;;;4980971;28;20047;-79
2022/12/12 09:03:44;;;;;;;1999.90;999.90;;;0.80;99.90;;;;;;4997100;28;20456;-80
2022/12/12 09:06:10;;;;;;;1999.90;999.90;;;0.90;99.90;;;;;;4993470;28;20050;-80
2022/12/12 09:08:37;;;;;;;1999.90;999.90;;;0.80;99.90;;;;;;4996451;28;20111;-80
2022/12/12 09:11:03;;;;;;;1999.90;999.90;;;0.90;99.90;;;;;;4977657;28;20050;-79
2022/12/12 09:13:29;;;;;;;1999.90;999.90;;;0.90;99.90;;;;;;4976918;28;20035;-82
2022/12/12 09:15:55;;;;;;;1999.90;999.90;;;0.80;99.90;;;;;;4975605;28;20536;-83
2022/12/12 09:18:21;;;;;;;1999.90;999.90;;;0.70;99.90;;;;;;4975338;28;20035;-81
2022/12/12 09:20:52;;;;;;;1999.90;999.90;;;0.70;99.90;;;;;;4975452;28;20070;-81
2022/12/12 09:23:18;;;;;;;1999.90;999.90;;;0.70;99.90;;;;;;4975611;28;20090;-80
2022/12/12 09:25:44;;;;;;;1999.90;999.90;;;0.80;99.90;;;;;;4982807;28;20038;-80
2022/12/12 09:28:10;;;;;;;1999.90;999.90;;;0.70;99.90;;;;;;4992739;28;20042;-81
2022/12/12 09:30:37;;;;;;;1999.90;999.90;;;0.60;99.90;;;;;;4984628;28;20042;-81
2022/12/12 09:33:02;;;;;;;1999.90;999.90;;;0.50;99.90;;;;;;4990613;28;20304;-80
2022/12/12 09:35:28;;;;;;;1999.90;999.90;;;0.50;99.90;;;;;;4998186;28;20039;-80
2022/12/12 09:37:54;;;;;;;1999.90;999.90;;;0.40;99.90;;;;;;4998121;28;20085;-81
2022/12/12 09:40:28;;;;;;;1999.90;999.90;;;0.40;99.90;;;;;;4987372;28;20082;-81
2022/12/12 09:42:54;;;;;;;1999.90;999.90;;;0.50;99.90;;;;;;4981964;28;20036;-81
2022/12/12 09:45:20;;;;;;;1999.90;999.90;;;0.50;99.90;;;;;;4988307;28;20039;-81
2022/12/12 09:47:48;;;;;;;1999.90;999.90;;;0.50;99.90;;;;;;4996650;28;20035;-81
2022/12/12 09:50:31;;;;;;;1999.90;999.90;;;0.60;99.90;;;;;;4997468;28;20050;-80
2022/12/12 09:53:00;;;;;;;1999.90;999.90;;;0.80;99.90;;;;;;4998969;28;20041;-80
2022/12/12 09:55:58;;;;;;;1999.90;999.90;;;0.70;99.90;;;;;;4994961;28;20081;-79
2022/12/12 09:58:41;;;;;;;1999.90;999.90;;;0.70;99.90;;;;;;4997069;28;20023;-80
2022/12/12 10:01:33;;;;;;;1999.90;999.90;;;0.60;99.90;;;;;;4986776;28;20047;-80
2022/12/12 10:04:24;;;;;;;1999.90;999.90;;;0.70;99.90;;;;;;4977176;28;20053;-80
2022/12/12 10:07:00;;;;;;;1999.90;999.90;;;0.80;99.90;;;;;;4980581;28;20035;-80
2022/12/12 10:09:48;;;;;;;1999.90;999.90;;;0.80;99.90;;;;;;4979603;28;20118;-81
2022/12/12 10:12:18;;;;;;;1999.90;999.90;;;0.60;99.90;;;;;;4975476;28;20545;-78
2022/12/12 10:14:57;;;;;;;1999.90;999.90;;;0.60;99.90;;;;;;4993761;28;20130;-79
2022/12/12 10:17:31;;;;;;;1999.90;999.90;;;0.60;99.90;;;;;;4993051;28;20035;-78
2022/12/12 10:20:03;;;;;;;1999.90;999.90;;;0.60;99.90;;;;;;4993097;28;20097;-78
2022/12/12 10:23:03;;;;;;;1999.90;999.90;;;0.60;99.90;;;;;;4983882;28;20113;-79
2022/12/12 10:25:51;;;;;;;1999.90;999.90;;;0.70;99.90;;;;;;4997315;28;20112;-78
2022/12/12 10:28:18;;;;;;;1999.90;999.90;;;0.80;99.90;;;;;;4998254;28;20031;-78
2022/12/12 10:31:05;;;;;;;1999.90;999.90;;;0.70;99.90;;;;;;4997700;28;20070;-78
2022/12/12 10:33:42;;;;;;;1999.90;999.90;;;0.60;99.90;;;;;;5004845;28;20027;-80
2022/12/12 10:36:40;;;;;;;1999.90;999.90;;;0.60;99.90;;;;;;5007825;28;20035;-81
2022/12/12 10:39:20;;;;;;;1999.90;999.90;;;0.70;99.90;;;;;;5001191;28;20035;-79
2022/12/12 10:41:56;;;;;;;1999.90;999.90;;;0.80;99.90;;;;;;5009757;28;20066;-81
2022/12/12 10:44:26;;;;;;;1999.90;999.90;;;0.80;99.90;;;;;;5001265;28;20037;-81
2022/12/12 10:47:18;;;;;;;1999.90;999.90;;;0.90;99.90;;;;;;4990539;28;20031;-80
2022/12/12 10:49:43;;;;;;;1999.90;999.90;;;0.90;99.90;;;;;;4984320;28;20050;-85
2022/12/12 10:52:17;;;;;;;1999.90;999.90;;;0.90;99.90;;;;;;4998042;28;20038;-80
2022/12/12 10:54:51;;;;;;;1999.90;999.90;;;0.90;99.90;;;;;;4997090;28;20479;-80
2022/12/12 10:57:20;;;;;;;1999.90;999.90;;;1.00;99.90;;;;;;4997546;28;20037;-80
2022/12/12 10:59:52;;;;;;;1999.90;999.90;;;1.20;99.90;;;;;;4996918;28;20038;-84
2022/12/12 11:02:21;;;;;;;1999.90;999.90;;;1.40;99.90;;;;;;4978519;28;20081;-83
2022/12/12 11:04:47;;;;;;;1999.90;999.90;;;1.40;99.90;;;;;;4977449;28;20035;-81
2022/12/12 11:07:21;;;;;;;1999.90;999.90;;;1.50;99.90;;;;;;4995925;28;20050;-85
2022/12/12 11:09:46;;;;;;;1999.90;999.90;;;1.50;99.90;;;;;;4989147;28;20899;-83
2022/12/12 11:12:15;;;;;;;1999.90;999.90;;;1.40;99.90;;;;;;4975991;28;20059;-83
2022/12/12 11:14:45;;;;;;;1999.90;999.90;;;1.30;99.90;;;;;;4989356;28;20047;-83
2022/12/12 11:20:00;;;;;;;1999.90;999.90;;;1.20;99.90;;;;;;4993322;22;40669;-78
2022/12/12 11:22:29;;;;;;;1999.90;999.90;;;1.20;99.90;;;;;;4975456;28;20031;-78
2022/12/12 11:24:55;;;;;;;1999.90;999.90;;;1.10;99.90;;;;;;4992478;28;20062;-78
2022/12/12 11:27:29;;;;;;;1999.90;999.90;;;1.10;99.90;;;;;;4997697;28;20042;-78
2022/12/12 11:29:58;;;;;;;1999.90;999.90;;;1.20;99.90;;;;;;4977359;28;20076;-77
2022/12/12 11:32:38;;;;;;;1999.90;999.90;;;1.40;99.90;;;;;;4975592;28;20485;-78
2022/12/12 11:35:19;;;;;;;1999.90;999.90;;;1.30;99.90;;;;;;4977779;28;20051;-78
2022/12/12 11:37:48;;;;;;;1999.90;999.90;;;1.20;99.90;;;;;;4975941;28;20034;-78
2022/12/12 11:40:40;;;;;;;1999.90;999.90;;;1.10;99.90;;;;;;4977490;28;20043;-78
2022/12/12 11:43:25;;;;;;;1999.90;999.90;;;1.10;99.90;;;;;;4974584;28;20045;-78
2022/12/12 11:45:57;;;;;;;1999.90;999.90;;;1.00;99.90;;;;;;4977697;28;20066;-78
2022/12/12 11:48:38;;;;;;;1999.90;999.90;;;1.10;99.90;;;;;;4977139;28;20039;-78
2022/12/12 11:51:03;;;;;;;1999.90;999.90;;;1.00;99.90;;;;;;4977281;28;20035;-78
2022/12/12 11:53:31;;;;;;;1999.90;999.90;;;1.00;99.90;;;;;;4977498;28;20035;-79
2022/12/12 11:56:31;;;;;;;1999.90;999.90;;;0.90;99.90;;;;;;4978548;28;20043;-79
2022/12/12 11:59:13;;;;;;;1999.90;999.90;;;0.80;99.90;;;;;;4978656;28;20027;-78
2022/12/12 12:01:59;;;;;;;1999.90;999.90;;;0.80;99.90;;;;;;4976679;28;20049;-78
2022/12/12 12:04:33;;;;;;;1999.90;999.90;;;0.70;99.90;;;;;;4976631;28;20186;-78
2022/12/12 12:07:30;;;;;;;1999.90;999.90;;;0.70;99.90;;;;;;4976817;28;20039;-78
2022/12/12 12:10:07;;;;;;;1999.90;999.90;;;0.70;99.90;;;;;;4976027;28;20042;-78
2022/12/12 12:12:52;;;;;;;1999.90;999.90;;;0.60;99.90;;;;;;4977036;28;20098;-78
2022/12/12 12:15:26;;;;;;;1999.90;999.90;;;0.50;99.90;;;;;;4978596;28;20040;-78
2022/12/12 12:18:10;;;;;;;1999.90;999.90;;;0.50;99.90;;;;;;4977403;28;20119;-78
2022/12/12 12:20:59;;;;;;;1999.90;999.90;;;0.40;99.90;;;;;;4979156;28;20051;-78
2022/12/12 12:23:56;;;;;;;1999.90;999.90;;;0.40;99.90;;;;;;4969791;28;20055;-78
2022/12/12 12:26:51;;;;;;;1999.90;999.90;;;0.50;99.90;;;;;;4977075;28;20042;-78
2022/12/12 12:29:39;;;;;;;1999.90;999.90;;;0.50;99.90;;;;;;4971747;28;20049;-78
2022/12/12 12:32:23;;;;;;;1999.90;999.90;;;0.50;99.90;;;;;;4977274;28;20099;-79
2022/12/12 12:35:22;;;;;;;1999.90;999.90;;;0.50;99.90;;;;;;4979210;28;20050;-78
2022/12/12 12:38:00;;;;;;;1999.90;999.90;;;0.50;99.90;;;;;;4975066;28;20075;-78
2022/12/12 12:40:41;;;;;;;1999.90;999.90;;;0.70;99.90;;;;;;4975585;28;20097;-78
2022/12/12 12:43:18;;;;;;;1999.90;999.90;;;0.80;99.90;;;;;;4975694;28;20039;-78
2022/12/12 12:46:06;;;;;;;1999.90;999.90;;;0.90;99.90;;;;;;4975520;28;20832;-79
2022/12/12 12:48:38;;;;;;;1999.90;999.90;;;1.10;99.90;;;;;;4975232;28;20035;-78
2022/12/12 12:51:28;;;;;;;1999.90;999.90;;;1.10;99.90;;;;;;4977274;28;20070;-79
2022/12/12 12:54:00;;;;;;;1999.90;999.90;;;1.00;99.90;;;;;;4975973;28;20043;-79
2022/12/12 12:56:31;;;;;;;1999.90;999.90;;;1.10;99.90;;;;;;4976531;28;20059;-78
2022/12/12 12:59:03;;;;;;;1999.90;999.90;;;1.10;99.90;;;;;;4975289;28;20103;-78
2022/12/12 13:01:50;;;;;;;1999.90;999.90;;;1.10;99.90;;;;;;4974774;28;20382;-78
2022/12/12 13:04:40;;;;;;;1999.90;999.90;;;1.20;99.90;;;;;;4975088;28;20043;-79
2022/12/12 13:07:41;;;;;;;1999.90;999.90;;;1.20;99.90;;;;;;4974851;28;20802;-78
2022/12/12 13:10:18;;;;;;;1999.90;999.90;;;1.20;99.90;;;;;;4966817;28;20051;-78
2022/12/12 13:13:07;;;;;;;1999.90;999.90;;;1.10;99.90;;;;;;4975099;28;20039;-79
2022/12/12 13:15:42;;;;;;;1999.90;999.90;;;1.10;99.90;;;;;;4963755;28;20449;-79
2022/12/12 13:18:10;;;;;;;1999.90;999.90;;;0.90;99.90;;;;;;4976026;28;20041;-79
2022/12/12 13:20:48;;;;;;;1999.90;999.90;;;0.80;99.90;;;;;;4974188;28;20074;-79
2022/12/12 13:23:36;;;;;;;1999.90;999.90;;;0.80;99.90;;;;;;4976527;28;20047;-79
2022/12/12 13:26:01;;;;;;;1999.90;999.90;;;0.80;99.90;;;;;;4975357;28;20405;-80
2022/12/12 13:28:49;;;;;;;1999.90;999.90;;;0.80;99.90;;;;;;4976624;28;20031;-80
2022/12/12 13:31:32;;;;;;;1999.90;999.90;;;0.80;99.90;;;;;;4975007;28;20066;-80
2022/12/12 13:34:05;;;;;;;1999.90;999.90;;;0.80;99.90;;;;;;4976620;28;20047;-81
2022/12/12 13:36:37;;;;;;;1999.90;999.90;;;0.80;99.90;;;;;;4975668;28;20043;-81
2022/12/12 13:39:05;;;;;;;1999.90;999.90;;;0.90;99.90;;;;;;4976259;28;20175;-80
2022/12/12 13:42:08;;;;;;;1999.90;999.90;;;0.90;99.90;;;;;;4977309;28;20035;-81
2022/12/12 13:44:38;;;;;;;1999.90;999.90;;;0.80;99.90;;;;;;4977217;28;20366;-80
2022/12/12 13:47:23;;;;;;;1999.90;999.90;;;0.80;99.90;;;;;;4975119;28;20035;-81
2022/12/12 13:49:58;;;;;;;1999.90;999.90;;;0.80;99.90;;;;;;4974350;28;20568;-78
2022/12/12 13:52:37;;;;;;;1999.90;999.90;;;0.90;99.90;;;;;;4974543;28;20039;-78
2022/12/12 13:55:12;;;;;;;1999.90;999.90;;;0.90;99.90;;;;;;4974923;28;20044;-78
2022/12/12 13:58:06;;;;;;;1999.90;999.90;;;0.90;99.90;;;;;;4975899;28;20106;-78
2022/12/12 14:00:39;;;;;;;1999.90;999.90;;;0.80;99.90;;;;;;4976411;28;20042;-78
2022/12/12 14:03:08;;;;;;;1999.90;999.90;;;0.80;99.90;;;;;;4975923;28;20472;-78
2022/12/12 14:05:49;;;;;;;1999.90;999.90;;;0.80;99.90;;;;;;4975443;28;20130;-81
2022/12/12 14:08:14;;;;;;;1999.90;999.90;;;0.80;99.90;;;;;;4978103;28;20031;-80
2022/12/12 14:11:01;;;;;;;1999.90;999.90;;;0.70;99.90;;;;;;4976318;28;20042;-80
2022/12/12 14:13:43;;;;;;;1999.90;999.90;;;0.70;99.90;;;;;;4977285;28;20528;-80
2022/12/12 14:16:15;;;;;;;1999.90;999.90;;;0.70;99.90;;;;;;4974318;28;20074;-80
2022/12/12 14:18:50;;;;;;;1999.90;999.90;;;0.60;99.90;;;;;;4975558;28;20031;-80
2022/12/12 14:21:18;;;;;;;1999.90;999.90;;;0.60;99.90;;;;;;4975991;28;20035;-80
2022/12/12 14:23:49;;;;;;;1999.90;999.90;;;0.60;99.90;;;;;;4976499;28;20122;-80
2022/12/12 14:26:27;;;;;;;1999.90;999.90;;;0.70;99.90;;;;;;4975342;28;20544;-80
2022/12/12 14:29:17;;;;;;;1999.90;999.90;;;0.60;99.90;;;;;;4975576;28;20520;-80
2022/12/12 14:31:55;;;;;;;1999.90;999.90;;;0.60;99.90;;;;;;4975270;28;20437;-80
2022/12/12 14:34:39;;;;;;;1999.90;999.90;;;0.60;99.90;;;;;;4975947;28;20051;-81
2022/12/12 14:37:26;;;;;;;1999.90;999.90;;;0.50;99.90;;;;;;4977038;28;20039;-80
2022/12/12 14:40:26;;;;;;;1999.90;999.90;;;0.60;99.90;;;;;;4975808;28;20047;-81
2022/12/12 14:43:12;;;;;;;1999.90;999.90;;;0.60;99.90;;;;;;4944203;28;20046;-80
2022/12/12 14:45:40;;;;;;;1999.90;999.90;;;0.50;99.90;;;;;;4979187;28;20035;-80
2022/12/12 14:48:13;;;;;;;1999.90;999.90;;;0.30;99.90;;;;;;4979661;28;20040;-80
2022/12/12 14:50:48;;;;;;;1999.90;999.90;;;0.20;99.90;;;;;;4983468;28;20035;-81
2022/12/12 14:53:23;;;;;;;1999.90;999.90;;;0.10;99.90;;;;;;4982802;28;20055;-81
2022/12/12 14:56:00;;;;;;;1999.90;999.90;;;0.00;99.90;;;;;;4982498;28;20050;-81
2022/12/12 14:58:29;;;;;;;1999.90;999.90;;;-0.10;99.90;;;;;;4984647;28;20019;-79
2022/12/12 15:00:59;;;;;;;1999.90;999.90;;;-0.10;99.90;;;;;;4980835;28;20046;-80
2022/12/12 15:03:36;;;;;;;1999.90;999.90;;;-0.20;99.90;;;;;;4986480;28;20087;-80
2022/12/12 15:06:28;;;;;;;1999.90;999.90;;;-0.30;99.90;;;;;;4983365;28;20047;-80
2022/12/12 15:09:05;;;;;;;1999.90;999.90;;;-0.40;99.90;;;;;;4979719;28;20039;-82
2022/12/12 15:11:31;;;;;;;1999.90;999.90;;;-0.50;99.90;;;;;;4978236;28;20035;-82
2022/12/12 15:13:59;;;;;;;1999.90;999.90;;;-0.60;99.90;;;;;;4965749;28;20110;-81
2022/12/12 15:16:48;;;;;;;1999.90;999.90;;;-0.70;99.90;;;;;;4957673;28;20130;-81
2022/12/12 15:19:38;;;;;;;1999.90;999.90;;;-0.90;99.90;;;;;;4950848;28;20127;-82
2022/12/12 15:22:22;;;;;;;1999.90;999.90;;;-1.10;99.90;;;;;;4960739;28;20091;-82
2022/12/12 15:24:49;;;;;;;1999.90;999.90;;;-1.20;99.90;;;;;;4961034;28;20028;-83
2022/12/12 15:27:29;;;;;;;1999.90;999.90;;;-1.20;99.90;;;;;;4961085;28;20046;-81
2022/12/12 15:30:00;;;;;;;1999.90;999.90;;;-1.30;99.90;;;;;;4962882;28;20036;-81
2022/12/12 15:32:27;;;;;;;1999.90;999.90;;;-1.40;99.90;;;;;;4963961;28;20497;-79
2022/12/12 15:35:13;;;;;;;1999.90;999.90;;;-1.60;99.90;;;;;;4957718;28;20502;-79
2022/12/12 15:37:39;;;;;;;1999.90;999.90;;;-1.80;99.90;;;;;;4957689;28;20068;-80
2022/12/12 15:40:10;;;;;;;1999.90;999.90;;;-1.80;99.90;;;;;;4954374;28;20068;-80
2022/12/12 15:43:02;;;;;;;1999.90;999.90;;;-1.90;99.90;;;;;;4956095;28;20797;-79
2022/12/12 15:45:32;;;;;;;1999.90;999.90;;;-2.00;99.90;;;;;;4958440;28;20067;-82
2022/12/12 15:47:59;;;;;;;1999.90;999.90;;;-2.10;99.90;;;;;;4958407;28;20088;-78
2022/12/12 15:50:29;;;;;;;1999.90;999.90;;;-2.20;99.90;;;;;;4957846;28;20525;-78
2022/12/12 15:53:16;;;;;;;1999.90;999.90;;;-2.30;99.90;;;;;;4956225;28;20036;-79
2022/12/12 15:55:54;;;;;;;1999.90;999.90;;;-2.30;99.90;;;;;;4957404;28;20209;-76
2022/12/12 15:58:26;;;;;;;1999.90;999.90;;;-2.40;99.90;;;;;;4955849;28;20036;-78
2022/12/12 16:00:59;;;;;;;1999.90;999.90;;;-2.40;99.90;;;;;;4957615;28;20044;-77
2022/12/12 16:03:25;;;;;;;1999.90;999.90;;;-2.50;99.90;;;;;;4958599;28;20060;-78
2022/12/12 16:06:17;;;;;;;1999.90;999.90;;;-2.40;99.90;;;;;;4957097;28;20079;-81
2022/12/12 16:08:51;;;;;;;1999.90;999.90;;;-2.50;99.90;;;;;;4959384;28;20038;-79
2022/12/12 16:11:37;;;;;;;1999.90;999.90;;;-2.50;99.90;;;;;;4958763;28;20039;-77
2022/12/12 16:14:05;;;;;;;1999.90;999.90;;;-2.60;99.90;;;;;;4958314;28;20028;-78
2022/12/12 16:16:45;;;;;;;1999.90;999.90;;;-2.60;99.90;;;;;;4956652;28;20042;-78
2022/12/12 16:19:25;;;;;;;1999.90;999.90;;;-2.70;99.90;;;;;;4959859;28;20040;-79
2022/12/12 16:21:50;;;;;;;1999.90;999.90;;;-2.70;99.90;;;;;;4961707;28;20123;-79
2022/12/12 16:24:24;;;;;;;1999.90;999.90;;;-2.60;99.90;;;;;;4959005;28;20572;-78
2022/12/12 16:26:51;;;;;;;1999.90;999.90;;;-2.60;99.90;;;;;;4958896;28;20043;-78
2022/12/12 16:29:17;;;;;;;1999.90;999.90;;;-2.50;99.90;;;;;;4960477;28;20514;-78
2022/12/12 16:31:44;;;;;;;1999.90;999.90;;;-2.40;99.90;;;;;;4957263;28;20043;-80
2022/12/12 16:34:12;;;;;;;1999.90;999.90;;;-2.40;99.90;;;;;;4957036;28;20044;-81
2022/12/12 16:36:38;;;;;;;1999.90;999.90;;;-2.40;99.90;;;;;;4958448;28;20042;-78
2022/12/12 16:39:04;;;;;;;1999.90;999.90;;;-2.50;99.90;;;;;;4957868;28;20036;-81
2022/12/12 16:41:29;;;;;;;1999.90;999.90;;;-2.50;99.90;;;;;;4958709;28;20095;-80
2022/12/12 16:43:55;;;;;;;1999.90;999.90;;;-2.60;99.90;;;;;;4962131;28;20031;-80
2022/12/12 16:46:23;;;;;;;1999.90;999.90;;;-2.60;99.90;;;;;;4962545;28;20028;-81
2022/12/12 16:48:49;;;;;;;1999.90;999.90;;;-2.70;99.90;;;;;;4959013;28;20043;-80
2022/12/12 16:51:25;;;;;;;1999.90;999.90;;;-2.80;99.90;;;;;;4957497;28;20529;-78
2022/12/12 16:53:50;;;;;;;1999.90;999.90;;;-2.90;99.90;;;;;;4956360;28;20094;-79
2022/12/12 16:56:16;;;;;;;1999.90;999.90;;;-3.00;99.90;;;;;;4957347;28;20044;-79
2022/12/12 16:58:42;;;;;;;1999.90;999.90;;;-3.10;99.90;;;;;;4959923;28;20031;-79
2022/12/12 17:01:08;;;;;;;1999.90;999.90;;;-3.20;99.90;;;;;;4960892;28;20039;-79
2022/12/12 17:03:34;;;;;;;1999.90;999.90;;;-3.20;99.90;;;;;;4961707;28;20032;-80
2022/12/12 17:06:00;;;;;;;1999.90;999.90;;;-3.20;99.90;;;;;;4960818;28;20114;-80
2022/12/12 17:08:26;;;;;;;1999.90;999.90;;;-3.10;99.90;;;;;;4958394;28;20091;-81
2022/12/12 17:10:53;;;;;;;1999.90;999.90;;;-3.10;99.90;;;;;;4960851;28;20043;-80
2022/12/12 17:13:25;;;;;;;1999.90;999.90;;;-3.10;99.90;;;;;;4960915;28;20032;-78
2022/12/12 17:15:52;;;;;;;1999.90;999.90;;;-3.10;99.90;;;;;;4961848;28;20056;-79
2022/12/12 17:18:19;;;;;;;1999.90;999.90;;;-3.10;99.90;;;;;;4987236;22;20031;-79
2022/12/12 17:20:45;;;;;;;1999.90;999.90;;;-3.10;99.90;;;;;;5000035;28;20499;-79
2022/12/12 17:23:16;;;;;;;1999.90;999.90;;;-3.20;99.90;;;;;;5003662;28;20031;-80
2022/12/12 17:25:42;;;;;;;1999.90;999.90;;;-3.30;99.90;;;;;;5002282;28;20480;-82
2022/12/12 17:28:12;;;;;;;1999.90;999.90;;;-3.40;99.90;;;;;;5000039;28;20035;-81
2022/12/12 17:30:39;;;;;;;1999.90;999.90;;;-3.50;99.90;;;;;;4999684;28;20524;-81
2022/12/12 17:33:04;;;;;;;1999.90;999.90;;;-3.60;99.90;;;;;;5001997;28;20121;-81